No se requiere un especial cuidado respecto a la situación meteorológica.   -   No hay avisos

Informes METAR

 

LEZL - Sevilla, Spain
Distancia de la estación: ENE 8km
Actualización: 28/06/2017 08:30
Despejado
Despejado
 Viento de O
Viento: O 9 km/h
Temperatura: 20°C
Rocío: 14°C
Humedad: 69%
Barómetro: 1016 hPa
Resumen: Despejado
Visibilidad: mayor de 10 km
2017/06/28 06:30 LEZL 280630Z 26005KT 240V310 CAVOK 20/14 Q1016 NOSIG
LEMO - Morón, Spain
Distancia de la estación: SE 43km
Actualización: 28/06/2017 09:00
Despejado
Despejado
 Viento de SO
Viento: SO 13 km/h
Temperatura: 19°C
Rocío: 15°C
Humedad: 78%
Barómetro: 1016 hPa
Resumen: Despejado
Visibilidad: mayor de 10 km
2017/06/28 07:00 LEMO 280700Z 22007KT 190V260 CAVOK 19/15 Q1016 NOSIG
LEJR - Jeréz, Spain
Distancia de la estación: S 71km
Actualización: 28/06/2017 08:30
Despejado
Despejado
 Viento de ONO
Viento: ONO 9 km/h
Temperatura: 20°C
Rocío: 16°C
Humedad: 78%
Barómetro: 1017 hPa
Resumen: Despejado
Visibilidad: mayor de 10 km
2017/06/28 06:30 LEJR 280630Z 29005KT 250V330 CAVOK 20/16 Q1017
 
LERT - Rota, Spain
Distancia de la estación: SSO 89km
Actualización: 28/06/2017 08:00
Parcialmente nuboso
Parcialmente nuboso
 Viento de NO
Viento: NO 11 km/h
Temperatura: 20°C
Rocío: 16°C
Humedad: 78%
Barómetro: 1016 hPa
Nubes: Parcialmente nuboso
Visibilidad: 10 km
Detalles de las nubes: Parcialmente nuboso 549 m
2017/06/28 06:00 LERT 280600Z 31006KT 280V340 9999 SCT018 20/16 Q1016 NOSIG
LEMG - Málaga, Spain
Distancia de la estación: ESE 157km
Actualización: 28/06/2017 08:30
Poco nuboso
Poco nuboso
 Viento de ONO
Viento: ONO 15 km/h
Temperatura: 23°C
Rocío: 13°C
Humedad: 53%
Barómetro: 1014 hPa
Nubes: Poco nuboso
Visibilidad: 10 km
Detalles de las nubes: Poco nuboso 914 m
2017/06/28 06:30 LEMG 280630Z 29008KT 260V320 9999 FEW030 23/13 Q1014 NOSIG
LEBA - Córdoba, Spain
Distancia de la estación: ENE 115km
Actualización: 28/06/2017 08:30
Despejado
Despejado
 Viento de O
Viento: O 9 km/h
Temperatura: 20°C
Rocío: 14°C
Humedad: 69%
Barómetro: 1015 hPa
Resumen: Despejado
Visibilidad: mayor de 10 km
2017/06/28 06:30 LEBA 280630Z 26005KT CAVOK 20/14 Q1015
 
LEGR - Granada, Spain
Distancia de la estación: E 198km
Actualización: 28/06/2017 08:30
Poco nuboso
Poco nuboso
 Viento de O
Viento: O 19 km/h
Temperatura: 19°C
Rocío: 13°C
Humedad: 68%
Barómetro: 1016 hPa
Nubes: Poco nuboso
Visibilidad: 10 km
Detalles de las nubes: Poco nuboso 914 m
2017/06/28 06:30 LEGR 280630Z 28010KT 9999 FEW030 19/13 Q1016
LEAM - Almería, Spain
Distancia de la estación: E 326km
Actualización: 28/06/2017 08:30
Despejado
Despejado
 Viento de variable
Viento: variable 2 km/h
Temperatura: 23°C
Rocío: 19°C
Humedad: 78%
Barómetro: 1011 hPa
Resumen: Despejado
Visibilidad: mayor de 10 km
2017/06/28 06:30 LEAM 280630Z VRB01KT CAVOK 23/19 Q1011
LEMD - Madrid/Barajas, Spain
Distancia de la estación: NNE 402km
Actualización: 28/06/2017 08:30
Parcialmente nuboso
Parcialmente nuboso
 Viento de SO
Viento: SO 19 km/h
Temperatura: 18°C
Rocío: 10°C
Humedad: 60%
Barómetro: 1012 hPa
Nubes: Parcialmente nuboso
Visibilidad: 10 km
Detalles de las nubes: Parcialmente nuboso 1829 m
2017/06/28 06:30 LEMD 280630Z 22010KT 9999 SCT060 18/10 Q1012 NOSIG
 
LEVD - Valladolid, Spain
Distancia de la estación: N 492km
Actualización: 28/06/2017 08:30
Llovizna, Cubierto
Llovizna, Cubierto
 Viento de SO
Viento: SO 19 km/h
Temperatura: 13°C
Rocío: 12°C
Humedad: 94%
Barómetro: 1011 hPa
Resumen: Llovizna
Nubes: Cubierto
Visibilidad: 10 km
Detalles de las nubes: Muy nuboso 396 m
Muy nuboso 579 m
Cubierto 914 m
2017/06/28 06:30 LEVD 280630Z 22010KT 9999 -DZ BKN013 BKN019 OVC030 13/12 Q1011
LEBL - Barcelona, Spain
Distancia de la estación: NE 816km
Actualización: 28/06/2017 08:30
Poco nuboso
Poco nuboso
 Viento de OSO
Viento: OSO 9 km/h
Temperatura: 24°C
Rocío: 19°C
Humedad: 74%
Barómetro: 1006 hPa
Nubes: Poco nuboso
Visibilidad: 10 km
Detalles de las nubes: Poco nuboso 549 m
Poco nuboso 610 m
2017/06/28 06:30 LEBL 280630Z 24005KT 210V290 9999 FEW018 FEW020TCU 24/19 Q1006 NOSIG
LEVC - Valencia, Spain
Distancia de la estación: ENE 535km
Actualización: 28/06/2017 08:30
Poco nuboso
Poco nuboso
 Viento de OSO
Viento: OSO 17 km/h
Temperatura: 26°C
Rocío: 9°C
Humedad: 34%
Barómetro: 1008 hPa
Nubes: Poco nuboso
Visibilidad: 10 km
Detalles de las nubes: Poco nuboso 914 m
2017/06/28 06:30 LEVC 280630Z 25009KT 220V290 9999 FEW030 26/09 Q1008 NOSIG